Time;durP1;ratioP1;P1;durP2;ratioP2;P2;SDS_P1;SDS_P2;PMS_P1;PMS_P2;Temp;Humidity;BMP_temperature;BMP_pressure;BME280_temperature;BME280_humidity;BME280_pressure;Samples;Min_cycle;Max_cycle;Signal;HPM_P1;HPM_P2
2022/04/29 00:01:38;;;;;;;9.00;5.53;;;7.10;99.90;;;;;;5048536;28;20622;-75
2022/04/29 00:04:27;;;;;;;5.83;4.90;;;7.00;99.90;;;;;;5052227;28;20479;-74
2022/04/29 00:07:15;;;;;;;7.13;5.40;;;7.00;99.90;;;;;;5053326;28;20439;-74
2022/04/29 00:10:04;;;;;;;7.10;5.70;;;6.90;99.90;;;;;;5048594;28;21186;-74
2022/04/29 00:12:53;;;;;;;10.60;6.60;;;6.90;99.90;;;;;;5048273;28;20615;-73
2022/04/29 00:15:42;;;;;;;11.17;6.33;;;6.90;99.90;;;;;;5044708;28;20487;-74
2022/04/29 00:18:32;;;;;;;8.23;6.07;;;6.80;99.90;;;;;;5044492;28;20462;-75
2022/04/29 00:21:20;;;;;;;12.57;6.17;;;6.80;99.90;;;;;;5052487;28;20483;-73
2022/04/29 00:24:08;;;;;;;15.10;6.80;;;6.80;99.90;;;;;;5050248;28;20474;-74
2022/04/29 00:26:58;;;;;;;7.90;6.13;;;6.80;99.90;;;;;;5053362;28;20545;-75
2022/04/29 00:29:46;;;;;;;9.97;6.37;;;6.80;99.90;;;;;;5053477;28;20477;-74
2022/04/29 00:32:34;;;;;;;13.60;6.53;;;6.80;99.90;;;;;;5056638;28;20675;-74
2022/04/29 00:35:26;;;;;;;8.47;6.17;;;6.70;99.90;;;;;;5053075;28;20700;-74
2022/04/29 00:38:16;;;;;;;9.20;6.00;;;6.70;99.90;;;;;;5053197;28;20555;-74
2022/04/29 00:41:04;;;;;;;9.23;5.70;;;6.70;99.90;;;;;;5056400;28;20508;-75
2022/04/29 00:44:00;;;;;;;12.93;6.50;;;6.60;99.90;;;;;;5050178;28;20552;-75
2022/04/29 00:46:50;;;;;;;9.33;6.83;;;6.60;99.90;;;;;;5055201;28;20544;-75
2022/04/29 00:49:39;;;;;;;10.37;6.43;;;6.60;99.90;;;;;;5048880;28;20489;-74
2022/04/29 00:52:32;;;;;;;8.40;6.20;;;6.60;99.90;;;;;;5049456;28;20533;-75
2022/04/29 00:55:22;;;;;;;8.83;5.63;;;6.50;99.90;;;;;;5051292;28;20901;-74
2022/04/29 00:58:15;;;;;;;14.50;6.73;;;6.50;99.90;;;;;;5050176;28;20506;-74
2022/04/29 01:01:05;;;;;;;11.50;6.30;;;6.50;99.90;;;;;;5047745;28;20632;-74
2022/04/29 01:03:56;;;;;;;8.97;6.30;;;6.50;99.90;;;;;;5046830;28;20477;-74
2022/04/29 01:06:44;;;;;;;8.03;6.23;;;6.50;99.90;;;;;;5049232;28;20508;-75
2022/04/29 01:09:33;;;;;;;10.87;6.67;;;6.40;99.90;;;;;;5049333;28;20596;-75
2022/04/29 01:12:22;;;;;;;8.87;6.00;;;6.40;99.90;;;;;;5049825;28;20492;-73
2022/04/29 01:15:13;;;;;;;8.73;6.37;;;6.40;99.90;;;;;;5046693;28;20483;-74
2022/04/29 01:18:04;;;;;;;7.70;6.10;;;6.40;99.90;;;;;;5050631;28;20460;-76
2022/04/29 01:21:01;;;;;;;8.60;6.10;;;6.30;99.90;;;;;;5052662;28;20489;-73
2022/04/29 01:23:51;;;;;;;11.37;6.40;;;6.30;99.90;;;;;;5048285;28;20563;-74
2022/04/29 01:26:39;;;;;;;10.67;7.10;;;6.30;99.90;;;;;;5054366;28;20584;-74
2022/04/29 01:29:28;;;;;;;8.10;5.90;;;6.30;99.90;;;;;;5050125;28;20580;-75
2022/04/29 01:32:17;;;;;;;7.83;6.03;;;6.30;99.90;;;;;;5049067;28;20529;-74
2022/04/29 01:35:08;;;;;;;9.23;6.23;;;6.30;99.90;;;;;;5053367;28;20555;-74
2022/04/29 01:37:56;;;;;;;8.07;6.60;;;6.30;99.90;;;;;;5056411;28;20553;-76
2022/04/29 01:40:45;;;;;;;9.20;6.57;;;6.20;99.90;;;;;;5051885;28;20871;-74
2022/04/29 01:43:34;;;;;;;10.13;7.10;;;6.20;99.90;;;;;;5052251;28;20486;-74
2022/04/29 01:46:22;;;;;;;12.47;7.50;;;6.10;99.90;;;;;;5050110;28;20535;-74
2022/04/29 01:49:11;;;;;;;8.13;6.70;;;6.10;99.90;;;;;;5053231;28;20575;-73
2022/04/29 01:51:59;;;;;;;9.83;7.00;;;6.10;99.90;;;;;;5052750;28;20478;-75
2022/04/29 01:54:48;;;;;;;11.90;6.30;;;6.10;99.90;;;;;;5052146;28;20477;-74
2022/04/29 01:57:37;;;;;;;9.33;7.00;;;6.10;99.90;;;;;;5049423;28;20690;-74
2022/04/29 02:00:26;;;;;;;10.87;6.13;;;6.10;99.90;;;;;;5054320;28;21323;-74
2022/04/29 02:03:14;;;;;;;10.63;6.60;;;6.10;99.90;;;;;;5050769;28;20603;-74
2022/04/29 02:06:02;;;;;;;8.17;5.60;;;6.10;99.90;;;;;;5055292;28;20457;-74
2022/04/29 02:08:50;;;;;;;10.17;6.60;;;6.10;99.90;;;;;;5049798;28;20585;-73
2022/04/29 02:11:38;;;;;;;7.17;6.47;;;6.10;99.90;;;;;;5054066;28;20561;-74
2022/04/29 02:14:28;;;;;;;8.93;6.83;;;6.10;99.90;;;;;;5051092;28;20559;-74
2022/04/29 02:17:16;;;;;;;8.60;6.60;;;6.00;99.90;;;;;;5051783;28;20519;-74
2022/04/29 02:20:06;;;;;;;10.70;6.90;;;6.00;99.90;;;;;;5049329;28;20528;-74
2022/04/29 02:22:54;;;;;;;10.53;6.30;;;6.00;99.90;;;;;;5050469;28;20506;-73
2022/04/29 02:25:42;;;;;;;13.87;7.20;;;6.00;99.90;;;;;;5049088;28;20456;-74
2022/04/29 02:28:31;;;;;;;10.70;6.70;;;6.00;99.90;;;;;;5047165;28;20857;-74
2022/04/29 02:31:20;;;;;;;10.43;6.70;;;6.00;99.90;;;;;;5045043;28;20481;-73
2022/04/29 02:34:09;;;;;;;7.80;6.53;;;6.00;99.90;;;;;;5033713;28;20473;-75
2022/04/29 02:36:57;;;;;;;9.33;6.30;;;5.90;99.90;;;;;;5048335;28;20573;-73
2022/04/29 02:39:45;;;;;;;8.13;6.90;;;5.90;99.90;;;;;;5048261;28;20623;-74
2022/04/29 02:42:33;;;;;;;8.83;6.73;;;5.90;99.90;;;;;;5038417;28;20465;-73
2022/04/29 02:45:22;;;;;;;8.53;6.70;;;5.90;99.90;;;;;;5045452;28;20454;-74
2022/04/29 02:48:11;;;;;;;8.30;6.80;;;5.90;99.90;;;;;;5051417;28;20604;-74
2022/04/29 02:50:59;;;;;;;10.83;7.37;;;5.90;99.90;;;;;;5045356;28;20487;-74
2022/04/29 02:53:48;;;;;;;10.10;6.93;;;5.90;99.90;;;;;;5046932;28;20561;-74
2022/04/29 02:56:36;;;;;;;9.83;6.97;;;5.80;99.90;;;;;;5049784;28;20869;-74
2022/04/29 02:59:24;;;;;;;8.73;5.90;;;5.80;99.90;;;;;;5041713;28;20535;-74
2022/04/29 03:02:12;;;;;;;9.57;7.10;;;5.80;99.90;;;;;;5048538;28;20831;-73
2022/04/29 03:05:02;;;;;;;10.93;6.50;;;5.80;99.90;;;;;;5046172;28;20533;-74
2022/04/29 03:07:50;;;;;;;12.70;7.50;;;5.80;99.90;;;;;;5046601;28;20470;-74
2022/04/29 03:10:38;;;;;;;11.20;6.47;;;5.80;99.90;;;;;;5048037;28;20475;-75
2022/04/29 03:13:27;;;;;;;12.53;7.90;;;5.70;99.90;;;;;;5041651;28;20478;-73
2022/04/29 03:16:15;;;;;;;8.30;7.30;;;5.70;99.90;;;;;;5047959;28;20473;-74
2022/04/29 03:19:04;;;;;;;9.93;7.20;;;5.70;99.90;;;;;;5048558;28;20462;-74
2022/04/29 03:21:53;;;;;;;11.30;7.37;;;5.70;99.90;;;;;;5046370;28;20600;-75
2022/04/29 03:24:41;;;;;;;11.83;6.70;;;5.70;99.90;;;;;;5048009;28;20474;-75
2022/04/29 03:27:29;;;;;;;11.70;7.63;;;5.70;99.90;;;;;;5042448;28;20438;-75
2022/04/29 03:30:18;;;;;;;11.07;6.90;;;5.70;99.90;;;;;;5044320;28;20603;-75
2022/04/29 03:33:07;;;;;;;9.30;6.47;;;5.60;99.90;;;;;;5049652;28;20984;-73
2022/04/29 03:35:55;;;;;;;10.53;6.33;;;5.70;99.90;;;;;;5046769;28;20682;-74
2022/04/29 03:38:45;;;;;;;10.40;6.50;;;5.70;99.90;;;;;;5049201;28;21020;-74
2022/04/29 03:41:34;;;;;;;9.20;6.60;;;5.60;99.90;;;;;;5047768;28;20719;-74
2022/04/29 03:44:22;;;;;;;10.57;6.50;;;5.60;99.90;;;;;;5052143;28;20548;-74
2022/04/29 03:47:10;;;;;;;10.60;6.63;;;5.60;99.90;;;;;;5047106;28;20592;-74
2022/04/29 03:49:59;;;;;;;12.03;7.73;;;5.60;99.90;;;;;;5050071;28;20610;-74
2022/04/29 03:52:48;;;;;;;10.40;7.40;;;5.60;99.90;;;;;;5049008;28;20565;-74
2022/04/29 03:55:38;;;;;;;10.90;7.60;;;5.60;99.90;;;;;;5049937;28;20454;-74
2022/04/29 03:58:26;;;;;;;15.30;6.87;;;5.60;99.90;;;;;;5050560;28;20465;-73
2022/04/29 04:01:14;;;;;;;11.40;6.63;;;5.60;99.90;;;;;;5059574;28;20584;-74
2022/04/29 04:04:03;;;;;;;8.77;7.57;;;5.60;99.90;;;;;;5057966;28;20477;-74
2022/04/29 04:06:52;;;;;;;12.33;7.70;;;5.60;99.90;;;;;;5054764;28;20445;-73
2022/04/29 04:09:40;;;;;;;9.83;6.67;;;5.50;99.90;;;;;;5056313;28;21005;-74
2022/04/29 04:12:39;;;;;;;9.17;6.83;;;5.50;99.90;;;;;;5053866;28;20466;-75
2022/04/29 04:15:27;;;;;;;12.27;7.30;;;5.60;99.90;;;;;;5057350;28;20633;-74
2022/04/29 04:18:16;;;;;;;10.43;7.33;;;5.50;99.90;;;;;;5055253;28;20892;-74
2022/04/29 04:21:04;;;;;;;11.10;7.03;;;5.50;99.90;;;;;;5059605;28;20477;-74
2022/04/29 04:23:53;;;;;;;12.93;7.17;;;5.50;99.90;;;;;;5060282;28;21005;-74
2022/04/29 04:26:41;;;;;;;10.97;7.10;;;5.50;99.90;;;;;;5055375;28;20541;-74
2022/04/29 04:29:31;;;;;;;12.93;6.33;;;5.60;99.90;;;;;;5059320;28;20491;-75
2022/04/29 04:32:22;;;;;;;9.43;7.13;;;5.60;99.90;;;;;;5054636;28;20447;-73
2022/04/29 04:35:10;;;;;;;8.73;6.60;;;5.60;99.90;;;;;;5051725;28;20982;-74
2022/04/29 04:37:58;;;;;;;11.07;6.50;;;5.60;99.90;;;;;;5053516;28;20835;-74
2022/04/29 04:40:47;;;;;;;12.40;9.67;;;5.60;99.90;;;;;;5055877;28;20565;-75
2022/04/29 04:43:38;;;;;;;11.40;7.37;;;5.60;99.90;;;;;;5050781;28;20474;-74
2022/04/29 04:46:27;;;;;;;9.47;7.03;;;5.60;99.90;;;;;;5061048;28;20489;-74
2022/04/29 04:49:16;;;;;;;10.80;7.07;;;5.60;99.90;;;;;;5046690;28;20441;-73
2022/04/29 04:52:04;;;;;;;12.00;7.13;;;5.60;99.90;;;;;;5049343;28;21183;-74
2022/04/29 04:54:53;;;;;;;8.13;6.70;;;5.60;99.90;;;;;;5047512;28;20478;-73
2022/04/29 04:57:41;;;;;;;12.77;8.53;;;5.60;99.90;;;;;;5034994;28;20514;-74
2022/04/29 05:00:30;;;;;;;11.57;7.57;;;5.60;99.90;;;;;;5050919;28;20505;-74
2022/04/29 05:03:20;;;;;;;12.90;7.37;;;5.60;99.90;;;;;;5042515;28;20612;-72
2022/04/29 05:06:08;;;;;;;9.40;7.57;;;5.60;99.90;;;;;;5049365;28;20998;-73
2022/04/29 05:08:56;;;;;;;9.53;7.43;;;5.60;99.90;;;;;;5052845;28;20531;-73
2022/04/29 05:11:44;;;;;;;13.20;7.73;;;5.60;99.90;;;;;;5034611;28;21078;-73
2022/04/29 05:14:52;;;;;;;11.90;8.43;;;5.70;99.90;;;;;;5055213;28;20481;-73
2022/04/29 05:17:41;;;;;;;11.63;8.10;;;5.70;99.90;;;;;;5043520;28;20588;-73
2022/04/29 05:20:30;;;;;;;10.43;7.53;;;5.70;99.90;;;;;;5048005;28;20540;-73
2022/04/29 05:23:18;;;;;;;10.00;7.63;;;5.80;99.90;;;;;;5045571;28;20482;-72
2022/04/29 05:26:07;;;;;;;10.20;7.77;;;5.80;99.90;;;;;;5050517;28;21053;-72
2022/04/29 05:28:55;;;;;;;10.13;7.00;;;5.90;99.90;;;;;;5044523;28;20506;-73
2022/04/29 05:31:43;;;;;;;10.20;7.13;;;5.90;99.90;;;;;;5046113;28;20636;-71
2022/04/29 05:34:33;;;;;;;8.90;6.63;;;5.90;99.90;;;;;;5044979;28;20547;-72
2022/04/29 05:37:22;;;;;;;11.37;7.33;;;6.00;99.90;;;;;;5033798;28;20524;-73
2022/04/29 05:43:18;;;;;;;13.63;7.47;;;6.00;99.90;;;;;;5030692;28;20547;-73
2022/04/29 05:46:06;;;;;;;10.90;7.60;;;6.10;99.90;;;;;;5012241;28;22865;-73
2022/04/29 05:48:54;;;;;;;9.17;7.43;;;6.10;99.90;;;;;;5034281;28;20438;-73
2022/04/29 05:51:49;;;;;;;11.70;6.70;;;6.10;99.90;;;;;;5046685;28;20478;-73
2022/04/29 05:54:39;;;;;;;11.50;7.70;;;6.20;99.90;;;;;;5041270;28;20597;-74
2022/04/29 05:57:31;;;;;;;11.23;7.47;;;6.20;99.90;;;;;;5041870;28;20477;-74
2022/04/29 06:00:20;;;;;;;9.90;6.93;;;6.20;99.90;;;;;;5038814;28;20502;-73
2022/04/29 06:03:09;;;;;;;9.20;6.50;;;6.20;99.90;;;;;;5034076;28;20513;-74
2022/04/29 06:05:58;;;;;;;11.80;7.20;;;6.30;99.90;;;;;;5034265;28;20466;-75
2022/04/29 06:08:46;;;;;;;14.53;7.70;;;6.20;99.90;;;;;;5033731;28;20856;-73
2022/04/29 06:11:35;;;;;;;10.00;7.30;;;6.30;99.90;;;;;;5036193;28;20478;-74
2022/04/29 06:14:23;;;;;;;8.43;6.47;;;6.30;99.90;;;;;;5044946;28;20569;-74
2022/04/29 06:17:12;;;;;;;9.00;7.03;;;6.30;99.90;;;;;;5033018;28;20485;-76
2022/04/29 06:20:00;;;;;;;9.40;7.43;;;6.40;99.90;;;;;;5033041;28;20924;-73
2022/04/29 06:22:49;;;;;;;9.77;6.70;;;6.40;99.90;;;;;;5033726;28;20577;-74
2022/04/29 06:25:37;;;;;;;11.23;7.40;;;6.50;99.90;;;;;;5039419;28;20812;-75
2022/04/29 06:28:26;;;;;;;10.60;6.70;;;6.60;99.90;;;;;;5046823;28;20742;-76
2022/04/29 06:31:15;;;;;;;8.80;6.27;;;6.70;99.90;;;;;;5041191;28;20493;-77
2022/04/29 06:34:04;;;;;;;11.50;6.17;;;6.70;99.90;;;;;;5032288;28;21490;-75
2022/04/29 06:36:52;;;;;;;8.30;6.37;;;6.80;99.90;;;;;;5035302;28;20470;-74
2022/04/29 06:39:40;;;;;;;7.33;6.40;;;6.90;99.90;;;;;;5036883;28;20474;-77
2022/04/29 06:42:29;;;;;;;9.97;6.80;;;7.00;99.90;;;;;;5048204;28;20458;-76
2022/04/29 06:45:19;;;;;;;8.40;7.10;;;7.10;99.90;;;;;;5044022;28;21004;-75
2022/04/29 06:48:07;;;;;;;8.70;6.23;;;7.20;99.90;;;;;;5038628;28;20457;-74
2022/04/29 06:50:55;;;;;;;9.30;6.23;;;7.20;99.90;;;;;;5040150;28;21004;-72
2022/04/29 06:53:44;;;;;;;9.40;6.77;;;7.30;99.90;;;;;;5035067;28;20592;-72
2022/04/29 06:56:32;;;;;;;8.70;6.40;;;7.40;99.90;;;;;;5045162;28;20453;-73
2022/04/29 06:59:20;;;;;;;7.23;6.53;;;7.40;99.90;;;;;;5039533;28;21493;-73
2022/04/29 07:02:10;;;;;;;7.50;6.03;;;7.50;99.90;;;;;;5035262;28;20461;-74
2022/04/29 07:04:58;;;;;;;9.03;6.50;;;7.50;99.90;;;;;;5039042;28;20475;-76
2022/04/29 07:07:49;;;;;;;9.33;6.50;;;7.60;99.90;;;;;;5037812;28;20446;-74
2022/04/29 07:10:37;;;;;;;9.83;6.73;;;7.60;99.90;;;;;;5043603;28;20500;-74
2022/04/29 07:13:25;;;;;;;7.80;6.40;;;7.70;99.90;;;;;;5039846;28;20596;-75
2022/04/29 07:16:14;;;;;;;7.87;6.23;;;7.80;99.90;;;;;;5035793;28;20454;-77
2022/04/29 07:19:03;;;;;;;8.33;5.80;;;7.90;99.90;;;;;;5041627;28;20471;-74
2022/04/29 07:21:52;;;;;;;9.77;6.20;;;8.00;99.90;;;;;;5040482;28;20462;-73
2022/04/29 07:24:40;;;;;;;7.73;5.70;;;8.10;99.90;;;;;;5034392;28;20516;-73
2022/04/29 07:27:29;;;;;;;8.67;6.37;;;8.20;99.90;;;;;;5035300;28;20594;-73
2022/04/29 07:30:17;;;;;;;8.43;6.20;;;8.30;99.90;;;;;;5035043;28;20579;-75
2022/04/29 07:33:05;;;;;;;8.07;6.10;;;8.40;99.90;;;;;;5032633;28;20573;-71
2022/04/29 07:42:07;;;;;;;7.40;4.80;;;8.70;99.90;;;;;;5030048;28;20468;-75
2022/04/29 07:44:55;;;;;;;9.20;5.00;;;8.80;99.90;;;;;;5028575;28;20643;-74
2022/04/29 07:47:47;;;;;;;6.03;5.30;;;8.80;99.90;;;;;;5043114;28;20466;-73
2022/04/29 07:50:36;;;;;;;8.10;5.47;;;8.90;99.90;;;;;;5043849;28;20517;-75
2022/04/29 07:53:26;;;;;;;7.80;4.93;;;9.10;99.90;;;;;;5037177;28;20467;-75
2022/04/29 07:56:14;;;;;;;6.40;4.60;;;9.10;99.90;;;;;;5037004;28;21057;-75
2022/04/29 07:59:03;;;;;;;6.07;4.27;;;9.20;99.90;;;;;;5041236;28;20548;-74
2022/04/29 08:01:51;;;;;;;5.73;3.87;;;9.20;99.90;;;;;;5035655;28;20455;-74
2022/04/29 08:04:40;;;;;;;6.73;4.20;;;9.30;99.90;;;;;;5038428;28;20484;-75
2022/04/29 08:07:28;;;;;;;5.37;4.33;;;9.40;99.90;;;;;;5039814;28;20985;-74
2022/04/29 08:10:17;;;;;;;6.20;4.30;;;9.40;99.90;;;;;;5037464;28;21231;-74
2022/04/29 08:13:06;;;;;;;6.13;4.60;;;9.50;99.90;;;;;;5033730;28;20555;-72
2022/04/29 08:15:54;;;;;;;5.47;3.80;;;9.60;99.90;;;;;;5036370;28;20553;-74
2022/04/29 08:18:43;;;;;;;4.57;3.53;;;9.70;99.90;;;;;;5037342;28;20974;-73
2022/04/29 08:21:31;;;;;;;4.70;3.70;;;9.80;99.90;;;;;;5048222;28;21171;-75
2022/04/29 08:24:19;;;;;;;4.43;3.83;;;9.90;99.90;;;;;;5039186;28;20663;-74
2022/04/29 08:27:10;;;;;;;5.43;3.70;;;10.00;99.90;;;;;;5033883;28;20601;-75
2022/04/29 08:29:58;;;;;;;4.40;3.90;;;10.10;99.90;;;;;;5040520;28;21008;-74
2022/04/29 08:32:50;;;;;;;5.77;4.07;;;10.20;99.90;;;;;;5035422;28;20489;-75
2022/04/29 08:35:39;;;;;;;4.33;3.47;;;10.20;99.90;;;;;;5029217;28;20462;-74
2022/04/29 08:38:27;;;;;;;3.93;3.37;;;10.30;99.90;;;;;;5032121;28;20613;-74
2022/04/29 08:41:21;;;;;;;5.10;3.17;;;10.30;99.90;;;;;;5036911;28;20466;-77
2022/04/29 08:44:12;;;;;;;5.07;3.80;;;10.30;99.90;;;;;;5040399;28;20470;-75
2022/04/29 08:47:04;;;;;;;6.17;3.53;;;10.40;99.90;;;;;;5049258;28;20473;-75
2022/04/29 08:49:53;;;;;;;4.20;3.00;;;10.40;99.90;;;;;;5039399;28;20471;-75
2022/04/29 08:52:42;;;;;;;5.30;3.30;;;10.40;99.90;;;;;;5034386;28;20880;-75
2022/04/29 08:58:40;;;;;;;6.70;3.67;;;10.40;99.90;;;;;;5041457;28;20605;-75
2022/04/29 09:01:29;;;;;;;6.70;3.47;;;10.40;99.90;;;;;;5024706;28;20478;-75
2022/04/29 09:04:18;;;;;;;4.63;3.60;;;10.50;99.90;;;;;;5041724;28;20611;-74
2022/04/29 09:07:07;;;;;;;3.60;3.10;;;10.60;99.90;;;;;;5038252;28;21047;-74
2022/04/29 09:10:04;;;;;;;5.97;3.53;;;10.80;99.90;;;;;;5045656;28;20478;-74
2022/04/29 09:12:53;;;;;;;3.80;2.80;;;10.80;99.90;;;;;;5038995;28;20600;-75
2022/04/29 09:15:50;;;;;;;4.03;2.90;;;10.90;99.90;;;;;;5040304;28;20472;-73
2022/04/29 09:18:41;;;;;;;3.70;2.87;;;11.00;99.90;;;;;;5048157;28;20553;-73
2022/04/29 09:21:31;;;;;;;4.53;2.87;;;11.00;99.90;;;;;;5041415;28;21646;-73
2022/04/29 09:24:22;;;;;;;4.53;3.27;;;11.00;99.90;;;;;;5040148;28;20596;-73
2022/04/29 09:27:10;;;;;;;7.53;3.20;;;11.00;99.90;;;;;;5036117;28;20452;-73
2022/04/29 09:29:59;;;;;;;3.20;2.90;;;11.00;99.90;;;;;;5052579;28;20500;-73
2022/04/29 09:32:48;;;;;;;3.37;3.07;;;11.10;99.90;;;;;;5048386;28;20477;-75
2022/04/29 09:35:42;;;;;;;3.20;2.90;;;11.30;99.90;;;;;;5049080;28;20459;-74
2022/04/29 09:41:36;;;;;;;6.03;3.47;;;11.50;99.90;;;;;;5049308;28;20488;-74
2022/04/29 09:44:29;;;;;;;3.77;3.47;;;11.70;99.90;;;;;;5050028;28;21009;-75
2022/04/29 09:47:19;;;;;;;5.63;3.57;;;11.70;99.90;;;;;;5046152;28;20483;-75
2022/04/29 09:50:09;;;;;;;5.10;4.17;;;11.80;99.90;;;;;;5047847;28;21227;-75
2022/04/29 09:53:15;;;;;;;4.00;3.33;;;12.00;99.90;;;;;;5042588;28;20513;-73
2022/04/29 09:56:09;;;;;;;3.30;3.00;;;12.10;99.90;;;;;;5048646;28;20481;-74
2022/04/29 09:58:58;;;;;;;5.27;3.50;;;12.20;99.90;;;;;;5046514;28;20485;-73
2022/04/29 10:01:46;;;;;;;3.77;3.30;;;12.30;99.90;;;;;;5046622;28;20454;-73
2022/04/29 10:04:36;;;;;;;3.80;3.50;;;12.20;99.90;;;;;;5043915;28;21191;-73
2022/04/29 10:07:26;;;;;;;3.87;3.10;;;12.20;99.90;;;;;;5044081;28;20451;-73
2022/04/29 10:10:17;;;;;;;3.40;3.10;;;12.30;99.90;;;;;;5042473;28;20462;-73
2022/04/29 10:13:08;;;;;;;3.90;3.60;;;12.40;99.90;;;;;;5047244;28;20493;-72
2022/04/29 10:15:57;;;;;;;6.33;4.23;;;12.40;99.90;;;;;;5044327;28;20446;-72
2022/04/29 10:22:00;;;;;;;3.63;3.10;;;12.50;99.90;;;;;;5045521;28;20554;-72
2022/04/29 10:24:48;;;;;;;4.33;3.50;;;12.60;99.90;;;;;;5043829;28;20478;-72
2022/04/29 10:27:40;;;;;;;4.63;3.57;;;12.80;99.90;;;;;;5044673;28;20473;-72
2022/04/29 10:30:30;;;;;;;4.53;3.20;;;12.90;99.90;;;;;;5046806;28;20480;-73
2022/04/29 10:33:23;;;;;;;4.50;3.63;;;12.90;99.90;;;;;;5042421;28;20478;-72
2022/04/29 10:36:14;;;;;;;4.50;3.10;;;13.00;99.90;;;;;;5046106;28;20458;-73
2022/04/29 10:39:02;;;;;;;3.43;2.50;;;12.90;99.90;;;;;;5047709;28;20474;-73
2022/04/29 10:42:06;;;;;;;3.23;2.93;;;12.90;99.90;;;;;;5047462;28;20521;-73
2022/04/29 10:45:02;;;;;;;3.87;3.10;;;13.00;99.90;;;;;;5042328;28;21005;-70
2022/04/29 10:47:50;;;;;;;4.87;3.10;;;13.10;99.90;;;;;;5038221;28;20462;-71
2022/04/29 10:50:39;;;;;;;3.93;3.03;;;13.20;99.90;;;;;;5043448;28;22888;-73
2022/04/29 10:53:37;;;;;;;4.40;3.37;;;13.30;99.90;;;;;;5040624;28;20572;-74
2022/04/29 10:56:38;;;;;;;3.43;3.13;;;13.40;99.90;;;;;;5051227;28;20441;-74
2022/04/29 10:59:26;;;;;;;3.77;3.47;;;13.50;99.90;;;;;;5037128;28;20480;-73
2022/04/29 11:02:23;;;;;;;3.63;3.10;;;13.50;99.90;;;;;;5041524;28;20483;-74
2022/04/29 11:05:34;;;;;;;3.60;3.03;;;13.60;99.90;;;;;;5043303;28;20457;-74
2022/04/29 11:08:30;;;;;;;3.30;3.00;;;13.70;99.90;;;;;;5048749;28;20450;-73
2022/04/29 11:11:18;;;;;;;4.13;3.00;;;13.70;99.90;;;;;;5030170;28;20566;-73
2022/04/29 11:14:06;;;;;;;3.70;3.20;;;13.80;99.90;;;;;;5038305;28;20761;-74
2022/04/29 11:17:07;;;;;;;3.17;2.90;;;13.90;99.90;;;;;;5043132;28;20581;-73
2022/04/29 11:20:17;;;;;;;3.87;3.10;;;14.00;99.90;;;;;;5048917;28;20482;-74
2022/04/29 11:26:12;;;;;;;4.60;3.23;;;14.30;99.90;;;;;;5040670;28;20865;-73
2022/04/29 11:29:00;;;;;;;3.40;3.20;;;14.40;99.90;;;;;;5043946;28;20686;-72
2022/04/29 11:31:49;;;;;;;3.70;3.40;;;14.50;99.90;;;;;;5042285;28;20483;-73
2022/04/29 11:34:52;;;;;;;4.43;3.27;;;14.60;99.90;;;;;;5035920;28;20478;-73
2022/04/29 11:37:41;;;;;;;10.60;3.50;;;14.80;99.90;;;;;;5045919;28;20988;-73
2022/04/29 11:40:29;;;;;;;3.97;3.53;;;14.80;99.90;;;;;;5051696;28;20474;-73
2022/04/29 11:43:23;;;;;;;5.33;3.97;;;14.90;99.90;;;;;;5048113;28;20496;-74
2022/04/29 11:46:11;;;;;;;3.90;3.60;;;15.00;99.90;;;;;;5044011;28;20507;-72
2022/04/29 11:49:00;;;;;;;3.50;3.20;;;15.00;99.90;;;;;;5037228;28;20489;-72
2022/04/29 11:51:48;;;;;;;4.40;3.73;;;15.10;99.90;;;;;;5043706;28;20558;-73
2022/04/29 11:54:49;;;;;;;3.77;3.47;;;15.30;99.90;;;;;;5048856;28;20471;-74
2022/04/29 11:57:44;;;;;;;4.83;3.30;;;15.40;99.90;;;;;;5045263;28;20509;-74
2022/04/29 12:00:34;;;;;;;3.97;3.67;;;15.50;99.90;;;;;;5042503;28;21184;-74
2022/04/29 12:03:24;;;;;;;4.10;3.27;;;15.70;99.90;;;;;;5041812;28;20470;-76
2022/04/29 12:06:12;;;;;;;4.13;3.73;;;15.80;99.90;;;;;;5033943;28;20827;-76
2022/04/29 12:09:03;;;;;;;3.70;3.40;;;15.70;99.90;;;;;;5046866;28;20497;-75
2022/04/29 12:11:53;;;;;;;6.40;3.63;;;15.70;99.90;;;;;;5035574;28;20530;-75
2022/04/29 12:14:41;;;;;;;7.40;3.90;;;15.70;99.90;;;;;;5037087;28;21067;-75
2022/04/29 12:17:34;;;;;;;4.13;3.57;;;15.60;99.90;;;;;;5042571;28;20463;-75
2022/04/29 12:20:22;;;;;;;3.87;3.57;;;15.60;99.90;;;;;;5035312;28;20553;-76
2022/04/29 12:23:12;;;;;;;6.20;4.00;;;15.50;99.90;;;;;;5049404;28;20510;-74
2022/04/29 12:26:02;;;;;;;4.20;3.80;;;15.70;99.90;;;;;;5039436;28;20455;-75
2022/04/29 12:28:56;;;;;;;4.93;4.43;;;15.80;99.90;;;;;;5042727;28;20485;-74
2022/04/29 12:35:09;;;;;;;5.13;4.30;;;15.80;99.90;;;;;;5049857;28;20484;-75
2022/04/29 12:37:57;;;;;;;5.37;4.57;;;15.90;99.90;;;;;;5044343;28;20703;-75
2022/04/29 12:41:25;;;;;;;4.40;4.03;;;16.00;99.90;;;;;;5047110;28;20528;-75
2022/04/29 12:45:03;;;;;;;4.53;4.10;;;16.20;99.90;;;;;;5047999;28;20482;-75
2022/04/29 12:47:24;;;;;;;4.73;4.33;;;16.30;99.90;;;;;;5044624;28;20821;-76
2022/04/29 12:50:20;;;;;;;9.83;5.13;;;16.40;99.90;;;;;;5047944;28;21042;-76
2022/04/29 12:53:12;;;;;;;5.83;4.97;;;16.50;99.90;;;;;;5050833;28;21001;-75
2022/04/29 12:56:00;;;;;;;5.20;4.70;;;16.40;99.90;;;;;;5049784;28;20572;-76
2022/04/29 12:58:49;;;;;;;5.50;5.10;;;16.50;99.90;;;;;;5045999;28;20540;-76
2022/04/29 13:01:39;;;;;;;5.50;5.00;;;16.50;99.90;;;;;;5049882;28;20523;-76
2022/04/29 13:04:28;;;;;;;5.67;4.97;;;16.60;99.90;;;;;;5047150;28;21009;-75
2022/04/29 13:07:16;;;;;;;6.10;4.63;;;16.70;99.90;;;;;;5043987;28;20463;-77
2022/04/29 13:10:05;;;;;;;5.50;5.00;;;16.80;99.90;;;;;;5040948;28;20473;-78
2022/04/29 13:12:56;;;;;;;4.90;4.60;;;17.00;99.90;;;;;;5030445;28;20485;-76
2022/04/29 13:15:45;;;;;;;5.60;5.10;;;17.00;99.90;;;;;;5044068;28;20495;-75
2022/04/29 13:18:36;;;;;;;5.10;4.70;;;17.00;99.90;;;;;;5042113;28;20619;-75
2022/04/29 13:21:24;;;;;;;5.43;5.03;;;17.10;99.90;;;;;;5044006;28;20478;-75
2022/04/29 13:24:12;;;;;;;5.90;5.40;;;17.20;99.90;;;;;;5042688;28;20482;-75
2022/04/29 13:27:01;;;;;;;6.53;5.97;;;17.30;99.90;;;;;;5042948;28;20462;-75
2022/04/29 13:29:49;;;;;;;6.80;6.10;;;17.10;99.90;;;;;;5043718;28;20486;-76
2022/04/29 13:32:37;;;;;;;6.50;6.00;;;17.20;99.90;;;;;;5041074;28;20532;-74
2022/04/29 13:35:27;;;;;;;6.50;5.97;;;17.20;99.90;;;;;;5038968;28;20549;-76
2022/04/29 13:38:15;;;;;;;14.30;6.97;;;17.10;99.90;;;;;;5045835;28;20449;-75
2022/04/29 13:41:04;;;;;;;10.03;6.33;;;16.90;99.90;;;;;;5045335;28;20580;-76
2022/04/29 13:43:52;;;;;;;16.37;7.20;;;16.90;99.90;;;;;;5039340;28;20500;-75
2022/04/29 13:46:56;;;;;;;6.40;5.90;;;16.90;99.90;;;;;;5048773;28;20621;-77
2022/04/29 13:49:44;;;;;;;8.40;6.27;;;16.60;99.90;;;;;;5051544;28;20961;-81
2022/04/29 13:55:42;;;;;;;5.67;5.23;;;16.40;99.90;;;;;;5051307;28;22733;-81
2022/04/29 13:58:30;;;;;;;5.63;5.03;;;16.30;99.90;;;;;;5038929;28;20680;-76
2022/04/29 14:01:20;;;;;;;5.47;4.97;;;16.30;99.90;;;;;;5044961;28;20483;-76
2022/04/29 14:04:08;;;;;;;5.70;5.20;;;16.20;99.90;;;;;;5044376;28;21273;-77
2022/04/29 14:06:57;;;;;;;7.47;5.30;;;16.10;99.90;;;;;;5044740;28;20462;-76
2022/04/29 14:09:47;;;;;;;6.20;4.73;;;16.00;99.90;;;;;;5045418;28;20482;-75
2022/04/29 14:12:36;;;;;;;6.63;6.00;;;16.00;99.90;;;;;;5042793;28;20509;-78
2022/04/29 14:15:24;;;;;;;5.07;4.67;;;16.00;99.90;;;;;;5043730;28;20599;-75
2022/04/29 14:18:12;;;;;;;5.70;5.20;;;16.10;99.90;;;;;;5017724;28;20454;-75
2022/04/29 14:21:01;;;;;;;5.77;5.17;;;16.30;99.90;;;;;;5040107;28;20470;-77
2022/04/29 14:23:49;;;;;;;5.47;4.80;;;16.40;99.90;;;;;;5033515;28;20990;-75
2022/04/29 14:26:38;;;;;;;6.50;5.20;;;16.50;99.90;;;;;;5036963;28;20572;-75
2022/04/29 14:29:27;;;;;;;5.20;4.80;;;16.60;99.90;;;;;;5036911;28;20462;-75
2022/04/29 14:32:15;;;;;;;4.80;4.40;;;16.70;99.90;;;;;;5042942;28;20448;-76
2022/04/29 14:35:06;;;;;;;5.47;4.43;;;16.80;99.90;;;;;;5046589;28;20455;-75
2022/04/29 14:37:54;;;;;;;4.70;4.30;;;16.80;99.90;;;;;;5044633;28;20829;-75
2022/04/29 14:40:43;;;;;;;6.47;4.63;;;16.70;99.90;;;;;;5038498;28;20470;-74
2022/04/29 14:43:36;;;;;;;7.57;4.70;;;16.50;99.90;;;;;;5043128;28;20478;-75
2022/04/29 14:46:25;;;;;;;5.00;4.60;;;16.50;99.90;;;;;;5043664;28;20471;-75
2022/04/29 14:49:13;;;;;;;5.10;4.63;;;16.40;99.90;;;;;;5045134;28;20505;-75
2022/04/29 14:52:01;;;;;;;5.50;4.77;;;16.10;99.90;;;;;;5037651;28;20462;-76
2022/04/29 14:54:49;;;;;;;6.23;5.00;;;16.10;99.90;;;;;;5039914;28;21002;-75
2022/04/29 14:57:38;;;;;;;5.20;4.80;;;16.00;99.90;;;;;;5040981;28;20494;-75
2022/04/29 15:00:27;;;;;;;5.17;4.60;;;15.90;99.90;;;;;;5046790;28;20558;-75
2022/04/29 15:03:15;;;;;;;4.20;3.90;;;15.80;99.90;;;;;;5052180;28;21041;-75
2022/04/29 15:06:05;;;;;;;5.63;5.17;;;15.80;99.90;;;;;;5050023;28;20516;-75
2022/04/29 15:15:34;;;;;;;5.90;5.37;;;15.80;99.90;;;;;;5036269;28;20462;-75
2022/04/29 15:15:48;;;;;;;7.13;6.33;;;15.50;99.90;;;;;;5044251;28;21012;-75
2022/04/29 15:18:36;;;;;;;7.60;7.00;;;15.40;99.90;;;;;;5049973;28;20602;-76
2022/04/29 15:21:25;;;;;;;8.43;6.40;;;15.20;99.90;;;;;;5041278;28;20932;-75